sensor_id;sensor_type;location;lat;lon;timestamp;temperature;humidity
262;DHT22;114;48.260;10.988;2023-09-08T00:02:27;12.60;1.00
262;DHT22;114;48.260;10.988;2023-09-08T00:04:53;12.60;1.00
262;DHT22;114;48.260;10.988;2023-09-08T00:07:19;12.60;1.00
262;DHT22;114;48.260;10.988;2023-09-08T00:09:44;12.60;1.00
262;DHT22;114;48.260;10.988;2023-09-08T00:12:10;12.60;1.00
262;DHT22;114;48.260;10.988;2023-09-08T00:14:36;12.50;1.00
262;DHT22;114;48.260;10.988;2023-09-08T00:17:02;12.50;1.00
262;DHT22;114;48.260;10.988;2023-09-08T00:19:27;12.50;1.00
262;DHT22;114;48.260;10.988;2023-09-08T00:21:53;12.40;1.00
262;DHT22;114;48.260;10.988;2023-09-08T00:24:19;12.40;1.00
262;DHT22;114;48.260;10.988;2023-09-08T00:26:45;12.40;1.00
262;DHT22;114;48.260;10.988;2023-09-08T00:29:10;12.50;1.00
262;DHT22;114;48.260;10.988;2023-09-08T00:31:36;12.50;1.00
262;DHT22;114;48.260;10.988;2023-09-08T00:34:02;12.50;1.00
262;DHT22;114;48.260;10.988;2023-09-08T00:36:27;12.40;1.00
262;DHT22;114;48.260;10.988;2023-09-08T00:38:53;12.40;1.00
262;DHT22;114;48.260;10.988;2023-09-08T00:41:19;12.40;1.00
262;DHT22;114;48.260;10.988;2023-09-08T00:43:45;12.40;1.00
262;DHT22;114;48.260;10.988;2023-09-08T00:46:11;12.30;1.00
262;DHT22;114;48.260;10.988;2023-09-08T00:48:37;12.30;1.00
262;DHT22;114;48.260;10.988;2023-09-08T00:51:03;12.30;1.00
262;DHT22;114;48.260;10.988;2023-09-08T00:53:31;12.30;1.00
262;DHT22;114;48.260;10.988;2023-09-08T00:55:57;12.30;1.00
262;DHT22;114;48.260;10.988;2023-09-08T00:58:24;12.30;1.00
262;DHT22;114;48.260;10.988;2023-09-08T01:00:51;12.20;1.00
262;DHT22;114;48.260;10.988;2023-09-08T01:03:17;12.20;1.00
262;DHT22;114;48.260;10.988;2023-09-08T01:05:43;12.20;1.00
262;DHT22;114;48.260;10.988;2023-09-08T01:08:12;12.20;1.00
262;DHT22;114;48.260;10.988;2023-09-08T01:10:38;12.20;1.00
262;DHT22;114;48.260;10.988;2023-09-08T01:13:06;12.20;1.00
262;DHT22;114;48.260;10.988;2023-09-08T01:15:32;12.20;1.00
262;DHT22;114;48.260;10.988;2023-09-08T01:17:58;12.20;1.00
262;DHT22;114;48.260;10.988;2023-09-08T01:26:12;12.20;1.00
262;DHT22;114;48.260;10.988;2023-09-08T01:28:42;12.20;1.00
262;DHT22;114;48.260;10.988;2023-09-08T01:31:10;12.10;1.00
262;DHT22;114;48.260;10.988;2023-09-08T01:33:36;12.00;1.00
262;DHT22;114;48.260;10.988;2023-09-08T01:36:01;11.90;1.00
262;DHT22;114;48.260;10.988;2023-09-08T01:38:27;11.90;1.00
262;DHT22;114;48.260;10.988;2023-09-08T01:40:53;11.80;1.00
262;DHT22;114;48.260;10.988;2023-09-08T01:43:19;11.70;1.00
262;DHT22;114;48.260;10.988;2023-09-08T01:45:44;11.70;1.00
262;DHT22;114;48.260;10.988;2023-09-08T01:48:10;11.70;1.00
262;DHT22;114;48.260;10.988;2023-09-08T01:50:36;11.70;1.00
262;DHT22;114;48.260;10.988;2023-09-08T01:53:01;11.60;1.00
262;DHT22;114;48.260;10.988;2023-09-08T01:55:27;11.60;1.00
262;DHT22;114;48.260;10.988;2023-09-08T01:57:53;11.50;1.00
262;DHT22;114;48.260;10.988;2023-09-08T02:00:18;11.50;1.00
262;DHT22;114;48.260;10.988;2023-09-08T02:02:44;11.50;1.00
262;DHT22;114;48.260;10.988;2023-09-08T02:05:10;11.50;1.00
262;DHT22;114;48.260;10.988;2023-09-08T02:07:36;11.40;1.00
262;DHT22;114;48.260;10.988;2023-09-08T02:10:03;11.50;1.00
262;DHT22;114;48.260;10.988;2023-09-08T02:12:29;11.40;1.00
262;DHT22;114;48.260;10.988;2023-09-08T02:14:55;11.40;1.00
262;DHT22;114;48.260;10.988;2023-09-08T02:17:21;11.40;1.00
262;DHT22;114;48.260;10.988;2023-09-08T02:19:46;11.40;1.00
262;DHT22;114;48.260;10.988;2023-09-08T02:22:12;11.40;1.00
262;DHT22;114;48.260;10.988;2023-09-08T02:24:38;11.60;1.00
262;DHT22;114;48.260;10.988;2023-09-08T02:27:04;11.50;1.00
262;DHT22;114;48.260;10.988;2023-09-08T02:29:31;11.50;1.00
262;DHT22;114;48.260;10.988;2023-09-08T02:31:57;11.50;1.00
262;DHT22;114;48.260;10.988;2023-09-08T02:34:22;11.40;1.00
262;DHT22;114;48.260;10.988;2023-09-08T02:36:48;11.30;1.00
262;DHT22;114;48.260;10.988;2023-09-08T02:39:16;11.30;1.00
262;DHT22;114;48.260;10.988;2023-09-08T02:41:42;11.30;1.00
262;DHT22;114;48.260;10.988;2023-09-08T02:44:08;11.30;1.00
262;DHT22;114;48.260;10.988;2023-09-08T02:46:33;11.20;1.00
262;DHT22;114;48.260;10.988;2023-09-08T02:48:59;11.20;1.00
262;DHT22;114;48.260;10.988;2023-09-08T02:51:24;11.10;1.00
262;DHT22;114;48.260;10.988;2023-09-08T02:53:50;11.10;1.00
262;DHT22;114;48.260;10.988;2023-09-08T02:56:17;11.20;1.00
262;DHT22;114;48.260;10.988;2023-09-08T02:58:44;11.20;1.00
262;DHT22;114;48.260;10.988;2023-09-08T03:01:17;11.20;1.00
262;DHT22;114;48.260;10.988;2023-09-08T03:03:46;11.10;1.00
262;DHT22;114;48.260;10.988;2023-09-08T03:06:13;11.10;1.00
262;DHT22;114;48.260;10.988;2023-09-08T03:08:39;11.10;1.00
262;DHT22;114;48.260;10.988;2023-09-08T03:11:05;11.10;1.00
262;DHT22;114;48.260;10.988;2023-09-08T03:13:32;11.10;1.00
262;DHT22;114;48.260;10.988;2023-09-08T03:16:05;11.00;1.00
262;DHT22;114;48.260;10.988;2023-09-08T03:18:32;11.00;1.00
262;DHT22;114;48.260;10.988;2023-09-08T03:20:59;11.00;1.00
262;DHT22;114;48.260;10.988;2023-09-08T03:23:25;11.00;1.00
262;DHT22;114;48.260;10.988;2023-09-08T03:25:51;11.00;1.00
262;DHT22;114;48.260;10.988;2023-09-08T03:28:17;11.00;1.00
262;DHT22;114;48.260;10.988;2023-09-08T03:30:43;11.10;1.00
262;DHT22;114;48.260;10.988;2023-09-08T03:33:08;11.00;1.00
262;DHT22;114;48.260;10.988;2023-09-08T03:35:34;10.90;1.00
262;DHT22;114;48.260;10.988;2023-09-08T03:38:00;10.90;1.00
262;DHT22;114;48.260;10.988;2023-09-08T03:40:26;10.90;1.00
262;DHT22;114;48.260;10.988;2023-09-08T03:42:52;10.90;1.00
262;DHT22;114;48.260;10.988;2023-09-08T03:45:18;10.80;1.00
262;DHT22;114;48.260;10.988;2023-09-08T03:47:43;10.70;1.00
262;DHT22;114;48.260;10.988;2023-09-08T03:50:09;10.80;1.00
262;DHT22;114;48.260;10.988;2023-09-08T03:52:35;10.80;1.00
262;DHT22;114;48.260;10.988;2023-09-08T03:55:01;10.70;1.00
262;DHT22;114;48.260;10.988;2023-09-08T03:57:27;10.70;1.00
262;DHT22;114;48.260;10.988;2023-09-08T03:59:53;10.70;1.00
262;DHT22;114;48.260;10.988;2023-09-08T04:02:18;10.70;1.00
262;DHT22;114;48.260;10.988;2023-09-08T04:04:44;10.70;1.00
262;DHT22;114;48.260;10.988;2023-09-08T04:07:09;10.70;1.00
262;DHT22;114;48.260;10.988;2023-09-08T04:09:35;10.60;1.00
262;DHT22;114;48.260;10.988;2023-09-08T04:12:01;10.70;1.00
262;DHT22;114;48.260;10.988;2023-09-08T04:14:27;10.60;1.00
262;DHT22;114;48.260;10.988;2023-09-08T04:16:54;10.60;1.00
262;DHT22;114;48.260;10.988;2023-09-08T04:19:19;10.50;1.00
262;DHT22;114;48.260;10.988;2023-09-08T04:21:45;10.40;1.00
262;DHT22;114;48.260;10.988;2023-09-08T04:24:11;10.30;1.00
262;DHT22;114;48.260;10.988;2023-09-08T04:26:37;10.30;1.00
262;DHT22;114;48.260;10.988;2023-09-08T04:29:03;10.30;1.00
262;DHT22;114;48.260;10.988;2023-09-08T04:31:29;10.30;1.00
262;DHT22;114;48.260;10.988;2023-09-08T04:33:56;10.30;1.00
262;DHT22;114;48.260;10.988;2023-09-08T04:36:22;10.30;1.00
262;DHT22;114;48.260;10.988;2023-09-08T04:38:48;10.30;1.00
262;DHT22;114;48.260;10.988;2023-09-08T04:41:14;10.40;1.00
262;DHT22;114;48.260;10.988;2023-09-08T04:43:40;10.40;1.00
262;DHT22;114;48.260;10.988;2023-09-08T04:46:05;10.60;1.00
262;DHT22;114;48.260;10.988;2023-09-08T04:48:32;10.80;1.00
262;DHT22;114;48.260;10.988;2023-09-08T04:50:58;11.10;1.00
262;DHT22;114;48.260;10.988;2023-09-08T04:53:23;11.00;1.00
262;DHT22;114;48.260;10.988;2023-09-08T04:55:49;11.10;1.00
262;DHT22;114;48.260;10.988;2023-09-08T04:58:15;11.00;1.00
262;DHT22;114;48.260;10.988;2023-09-08T05:00:40;11.00;1.00
262;DHT22;114;48.260;10.988;2023-09-08T05:03:09;11.00;1.00
262;DHT22;114;48.260;10.988;2023-09-08T05:05:36;10.90;1.00
262;DHT22;114;48.260;10.988;2023-09-08T05:08:01;10.80;1.00
262;DHT22;114;48.260;10.988;2023-09-08T05:10:27;10.80;1.00
262;DHT22;114;48.260;10.988;2023-09-08T05:12:53;10.70;1.00
262;DHT22;114;48.260;10.988;2023-09-08T05:15:18;10.70;1.00
262;DHT22;114;48.260;10.988;2023-09-08T05:17:46;10.70;1.00
262;DHT22;114;48.260;10.988;2023-09-08T05:20:12;10.70;1.00
262;DHT22;114;48.260;10.988;2023-09-08T05:22:38;10.70;1.00
262;DHT22;114;48.260;10.988;2023-09-08T05:25:04;10.80;1.00
262;DHT22;114;48.260;10.988;2023-09-08T05:27:30;10.90;1.00
262;DHT22;114;48.260;10.988;2023-09-08T05:29:57;10.90;1.00
262;DHT22;114;48.260;10.988;2023-09-08T05:32:22;10.90;1.00
262;DHT22;114;48.260;10.988;2023-09-08T05:34:48;11.00;1.00
262;DHT22;114;48.260;10.988;2023-09-08T05:37:14;11.10;1.00
262;DHT22;114;48.260;10.988;2023-09-08T05:39:40;11.20;1.00
262;DHT22;114;48.260;10.988;2023-09-08T05:42:06;11.30;1.00
262;DHT22;114;48.260;10.988;2023-09-08T05:44:32;11.40;1.00
262;DHT22;114;48.260;10.988;2023-09-08T05:46:58;11.50;1.00
262;DHT22;114;48.260;10.988;2023-09-08T05:49:24;11.60;1.00
262;DHT22;114;48.260;10.988;2023-09-08T05:51:50;11.70;1.00
262;DHT22;114;48.260;10.988;2023-09-08T05:54:16;11.80;1.00
262;DHT22;114;48.260;10.988;2023-09-08T05:56:41;11.90;1.00
262;DHT22;114;48.260;10.988;2023-09-08T05:59:07;12.00;1.00
262;DHT22;114;48.260;10.988;2023-09-08T06:01:33;12.10;1.00
262;DHT22;114;48.260;10.988;2023-09-08T06:03:58;12.30;1.00
262;DHT22;114;48.260;10.988;2023-09-08T06:06:24;12.40;1.00
262;DHT22;114;48.260;10.988;2023-09-08T06:08:53;12.50;1.00
262;DHT22;114;48.260;10.988;2023-09-08T06:11:19;12.70;1.00
262;DHT22;114;48.260;10.988;2023-09-08T06:13:45;12.80;1.00
262;DHT22;114;48.260;10.988;2023-09-08T06:16:11;13.10;1.00
262;DHT22;114;48.260;10.988;2023-09-08T06:18:36;13.20;1.00
262;DHT22;114;48.260;10.988;2023-09-08T06:21:08;13.40;1.00
262;DHT22;114;48.260;10.988;2023-09-08T06:23:34;13.60;1.00
262;DHT22;114;48.260;10.988;2023-09-08T06:26:01;13.70;1.00
262;DHT22;114;48.260;10.988;2023-09-08T06:28:27;13.90;1.00
262;DHT22;114;48.260;10.988;2023-09-08T06:30:53;14.10;1.00
262;DHT22;114;48.260;10.988;2023-09-08T06:33:19;14.40;1.00
262;DHT22;114;48.260;10.988;2023-09-08T06:35:46;14.60;1.00
262;DHT22;114;48.260;10.988;2023-09-08T06:38:12;14.80;1.00
262;DHT22;114;48.260;10.988;2023-09-08T06:40:39;14.90;1.00
262;DHT22;114;48.260;10.988;2023-09-08T06:43:05;15.10;1.00
262;DHT22;114;48.260;10.988;2023-09-08T06:45:32;15.30;1.00
262;DHT22;114;48.260;10.988;2023-09-08T06:47:58;15.50;1.00
262;DHT22;114;48.260;10.988;2023-09-08T06:50:25;15.60;1.00
262;DHT22;114;48.260;10.988;2023-09-08T06:52:52;15.90;1.00
262;DHT22;114;48.260;10.988;2023-09-08T06:55:18;16.10;1.00
262;DHT22;114;48.260;10.988;2023-09-08T06:57:45;16.30;1.00
262;DHT22;114;48.260;10.988;2023-09-08T07:00:12;16.40;1.00
262;DHT22;114;48.260;10.988;2023-09-08T07:02:39;16.60;1.00
262;DHT22;114;48.260;10.988;2023-09-08T07:05:05;16.70;1.00
262;DHT22;114;48.260;10.988;2023-09-08T07:07:36;16.90;1.00
262;DHT22;114;48.260;10.988;2023-09-08T07:10:05;17.00;1.00
262;DHT22;114;48.260;10.988;2023-09-08T07:12:31;17.10;1.00
262;DHT22;114;48.260;10.988;2023-09-08T07:14:57;17.20;1.00
262;DHT22;114;48.260;10.988;2023-09-08T07:17:23;17.20;1.00
262;DHT22;114;48.260;10.988;2023-09-08T07:19:50;17.20;1.00
262;DHT22;114;48.260;10.988;2023-09-08T07:22:15;17.40;1.00
262;DHT22;114;48.260;10.988;2023-09-08T07:24:44;17.70;1.00
262;DHT22;114;48.260;10.988;2023-09-08T07:27:10;18.00;1.00
262;DHT22;114;48.260;10.988;2023-09-08T07:29:39;18.20;1.00
262;DHT22;114;48.260;10.988;2023-09-08T07:32:05;18.20;1.00
262;DHT22;114;48.260;10.988;2023-09-08T07:34:31;18.20;1.00
262;DHT22;114;48.260;10.988;2023-09-08T07:36:57;18.20;1.00
262;DHT22;114;48.260;10.988;2023-09-08T07:39:22;18.40;1.00
262;DHT22;114;48.260;10.988;2023-09-08T07:41:49;18.70;1.00
262;DHT22;114;48.260;10.988;2023-09-08T07:44:15;18.80;1.00
262;DHT22;114;48.260;10.988;2023-09-08T07:46:40;18.70;1.00
262;DHT22;114;48.260;10.988;2023-09-08T07:49:06;18.80;1.00
262;DHT22;114;48.260;10.988;2023-09-08T07:51:32;19.00;1.00
262;DHT22;114;48.260;10.988;2023-09-08T07:53:57;19.20;1.00
262;DHT22;114;48.260;10.988;2023-09-08T07:56:25;19.40;1.00
262;DHT22;114;48.260;10.988;2023-09-08T07:58:51;19.50;1.00
262;DHT22;114;48.260;10.988;2023-09-08T08:01:17;19.60;1.00
262;DHT22;114;48.260;10.988;2023-09-08T08:03:42;19.70;1.00
262;DHT22;114;48.260;10.988;2023-09-08T08:06:08;19.90;1.00
262;DHT22;114;48.260;10.988;2023-09-08T08:08:40;20.00;1.00
262;DHT22;114;48.260;10.988;2023-09-08T08:11:13;20.00;1.00
262;DHT22;114;48.260;10.988;2023-09-08T08:13:39;20.20;1.00
262;DHT22;114;48.260;10.988;2023-09-08T08:16:05;20.30;1.00
262;DHT22;114;48.260;10.988;2023-09-08T08:18:30;20.50;1.00
262;DHT22;114;48.260;10.988;2023-09-08T08:20:56;20.50;1.00
262;DHT22;114;48.260;10.988;2023-09-08T08:23:22;20.60;1.00
262;DHT22;114;48.260;10.988;2023-09-08T08:25:49;20.80;1.00
262;DHT22;114;48.260;10.988;2023-09-08T08:28:15;20.60;1.00
262;DHT22;114;48.260;10.988;2023-09-08T08:30:40;20.70;1.00
262;DHT22;114;48.260;10.988;2023-09-08T08:33:07;20.80;1.00
262;DHT22;114;48.260;10.988;2023-09-08T08:35:33;20.80;1.00
262;DHT22;114;48.260;10.988;2023-09-08T08:37:59;20.90;1.00
262;DHT22;114;48.260;10.988;2023-09-08T08:40:27;21.00;1.00
262;DHT22;114;48.260;10.988;2023-09-08T08:42:57;21.20;1.00
262;DHT22;114;48.260;10.988;2023-09-08T08:45:27;21.40;1.00
262;DHT22;114;48.260;10.988;2023-09-08T08:47:53;21.70;1.00
262;DHT22;114;48.260;10.988;2023-09-08T08:50:20;21.80;1.00
262;DHT22;114;48.260;10.988;2023-09-08T08:52:46;22.00;1.00
262;DHT22;114;48.260;10.988;2023-09-08T08:55:12;21.90;1.00
262;DHT22;114;48.260;10.988;2023-09-08T08:57:40;21.70;1.00
262;DHT22;114;48.260;10.988;2023-09-08T09:00:11;22.10;1.00
262;DHT22;114;48.260;10.988;2023-09-08T09:02:42;22.40;1.00
262;DHT22;114;48.260;10.988;2023-09-08T09:05:11;22.50;1.00
262;DHT22;114;48.260;10.988;2023-09-08T09:07:39;22.50;1.00
262;DHT22;114;48.260;10.988;2023-09-08T09:10:06;22.60;1.00
262;DHT22;114;48.260;10.988;2023-09-08T09:12:32;22.60;1.00
262;DHT22;114;48.260;10.988;2023-09-08T09:14:59;22.80;1.00
262;DHT22;114;48.260;10.988;2023-09-08T09:17:25;22.90;1.00
262;DHT22;114;48.260;10.988;2023-09-08T09:20:15;22.90;1.00
262;DHT22;114;48.260;10.988;2023-09-08T09:22:41;23.10;1.00
262;DHT22;114;48.260;10.988;2023-09-08T09:25:07;23.20;1.00
262;DHT22;114;48.260;10.988;2023-09-08T09:27:33;23.10;1.00
262;DHT22;114;48.260;10.988;2023-09-08T09:30:04;23.00;1.00
262;DHT22;114;48.260;10.988;2023-09-08T09:32:30;23.00;1.00
262;DHT22;114;48.260;10.988;2023-09-08T09:34:57;23.00;1.00
262;DHT22;114;48.260;10.988;2023-09-08T09:37:26;23.30;1.00
262;DHT22;114;48.260;10.988;2023-09-08T09:39:54;23.40;1.00
262;DHT22;114;48.260;10.988;2023-09-08T09:42:21;23.40;1.00
262;DHT22;114;48.260;10.988;2023-09-08T09:44:52;23.60;1.00
262;DHT22;114;48.260;10.988;2023-09-08T09:47:19;24.00;1.00
262;DHT22;114;48.260;10.988;2023-09-08T09:49:46;24.10;1.00
262;DHT22;114;48.260;10.988;2023-09-08T09:52:13;24.30;1.00
262;DHT22;114;48.260;10.988;2023-09-08T09:54:43;24.60;1.00
262;DHT22;114;48.260;10.988;2023-09-08T09:57:13;24.70;1.00
262;DHT22;114;48.260;10.988;2023-09-08T09:59:42;25.00;1.00
262;DHT22;114;48.260;10.988;2023-09-08T10:02:14;25.10;1.00
262;DHT22;114;48.260;10.988;2023-09-08T10:04:41;24.90;1.00
262;DHT22;114;48.260;10.988;2023-09-08T10:07:07;25.00;1.00
262;DHT22;114;48.260;10.988;2023-09-08T10:09:37;25.20;1.00
262;DHT22;114;48.260;10.988;2023-09-08T10:12:06;25.40;1.00
262;DHT22;114;48.260;10.988;2023-09-08T10:14:35;25.40;1.00
262;DHT22;114;48.260;10.988;2023-09-08T10:17:02;25.70;1.00
262;DHT22;114;48.260;10.988;2023-09-08T10:19:31;25.90;1.00
262;DHT22;114;48.260;10.988;2023-09-08T10:22:00;26.10;1.00
262;DHT22;114;48.260;10.988;2023-09-08T10:24:33;26.10;1.00
262;DHT22;114;48.260;10.988;2023-09-08T10:27:08;26.00;1.00
262;DHT22;114;48.260;10.988;2023-09-08T10:29:38;26.00;1.00
262;DHT22;114;48.260;10.988;2023-09-08T10:32:07;26.20;1.00
262;DHT22;114;48.260;10.988;2023-09-08T10:34:35;26.40;1.00
262;DHT22;114;48.260;10.988;2023-09-08T10:37:01;26.40;1.00
262;DHT22;114;48.260;10.988;2023-09-08T10:39:33;26.60;1.00
262;DHT22;114;48.260;10.988;2023-09-08T10:45:14;27.10;1.00
262;DHT22;114;48.260;10.988;2023-09-08T10:48:01;27.30;1.00
262;DHT22;114;48.260;10.988;2023-09-08T10:50:31;27.30;1.00
262;DHT22;114;48.260;10.988;2023-09-08T10:53:24;27.50;1.00
262;DHT22;114;48.260;10.988;2023-09-08T10:55:52;27.60;1.00
262;DHT22;114;48.260;10.988;2023-09-08T10:58:20;27.60;1.00
262;DHT22;114;48.260;10.988;2023-09-08T11:00:50;28.10;1.00
262;DHT22;114;48.260;10.988;2023-09-08T11:03:26;28.60;1.00
262;DHT22;114;48.260;10.988;2023-09-08T11:05:53;29.60;1.00
262;DHT22;114;48.260;10.988;2023-09-08T11:08:19;30.30;1.00
262;DHT22;114;48.260;10.988;2023-09-08T11:10:45;30.40;1.00
262;DHT22;114;48.260;10.988;2023-09-08T11:13:11;30.90;1.00
262;DHT22;114;48.260;10.988;2023-09-08T11:15:37;30.90;1.00
262;DHT22;114;48.260;10.988;2023-09-08T11:18:06;30.80;1.00
262;DHT22;114;48.260;10.988;2023-09-08T11:20:34;31.30;1.00
262;DHT22;114;48.260;10.988;2023-09-08T11:23:00;31.20;1.00
262;DHT22;114;48.260;10.988;2023-09-08T11:25:26;31.50;1.00
262;DHT22;114;48.260;10.988;2023-09-08T11:27:52;31.90;1.00
262;DHT22;114;48.260;10.988;2023-09-08T11:30:18;32.00;1.00
262;DHT22;114;48.260;10.988;2023-09-08T11:32:44;32.60;1.00
262;DHT22;114;48.260;10.988;2023-09-08T11:35:10;32.90;1.00
262;DHT22;114;48.260;10.988;2023-09-08T11:37:41;33.00;1.00
262;DHT22;114;48.260;10.988;2023-09-08T11:40:09;33.30;1.00
262;DHT22;114;48.260;10.988;2023-09-08T11:42:36;33.80;1.00
262;DHT22;114;48.260;10.988;2023-09-08T11:45:02;34.00;1.00
262;DHT22;114;48.260;10.988;2023-09-08T11:47:29;34.20;1.00
262;DHT22;114;48.260;10.988;2023-09-08T11:49:55;33.70;1.00
262;DHT22;114;48.260;10.988;2023-09-08T11:52:23;34.70;1.00
262;DHT22;114;48.260;10.988;2023-09-08T11:54:51;35.00;1.00
262;DHT22;114;48.260;10.988;2023-09-08T11:57:17;34.90;1.00
262;DHT22;114;48.260;10.988;2023-09-08T11:59:43;35.60;1.00
262;DHT22;114;48.260;10.988;2023-09-08T12:02:11;36.70;1.00
262;DHT22;114;48.260;10.988;2023-09-08T12:04:37;36.40;1.00
262;DHT22;114;48.260;10.988;2023-09-08T12:07:04;36.30;1.00
262;DHT22;114;48.260;10.988;2023-09-08T12:09:30;36.80;1.00
262;DHT22;114;48.260;10.988;2023-09-08T12:11:57;36.00;1.00
262;DHT22;114;48.260;10.988;2023-09-08T12:14:25;35.80;1.00
262;DHT22;114;48.260;10.988;2023-09-08T12:17:05;36.60;1.00
262;DHT22;114;48.260;10.988;2023-09-08T12:19:32;37.80;1.00
262;DHT22;114;48.260;10.988;2023-09-08T12:22:02;36.90;1.00
262;DHT22;114;48.260;10.988;2023-09-08T12:24:55;36.20;1.00
262;DHT22;114;48.260;10.988;2023-09-08T12:27:25;36.90;1.00
262;DHT22;114;48.260;10.988;2023-09-08T12:29:56;37.60;1.00
262;DHT22;114;48.260;10.988;2023-09-08T12:32:23;37.40;1.00
262;DHT22;114;48.260;10.988;2023-09-08T12:34:49;37.60;1.00
262;DHT22;114;48.260;10.988;2023-09-08T12:37:22;37.80;1.00
262;DHT22;114;48.260;10.988;2023-09-08T12:39:49;36.90;1.00
262;DHT22;114;48.260;10.988;2023-09-08T12:42:15;37.50;1.00
262;DHT22;114;48.260;10.988;2023-09-08T12:44:41;37.80;1.00
262;DHT22;114;48.260;10.988;2023-09-08T12:47:06;38.30;1.00
262;DHT22;114;48.260;10.988;2023-09-08T12:49:32;37.90;1.00
262;DHT22;114;48.260;10.988;2023-09-08T12:51:58;37.70;1.00
262;DHT22;114;48.260;10.988;2023-09-08T12:54:24;38.30;1.00
262;DHT22;114;48.260;10.988;2023-09-08T12:56:50;38.60;1.00
262;DHT22;114;48.260;10.988;2023-09-08T12:59:16;38.20;1.00
262;DHT22;114;48.260;10.988;2023-09-08T13:01:42;39.00;1.00
262;DHT22;114;48.260;10.988;2023-09-08T13:04:07;38.90;1.00
262;DHT22;114;48.260;10.988;2023-09-08T13:06:33;37.90;1.00
262;DHT22;114;48.260;10.988;2023-09-08T13:09:00;37.70;1.00
262;DHT22;114;48.260;10.988;2023-09-08T13:11:26;37.80;1.00
262;DHT22;114;48.260;10.988;2023-09-08T13:13:52;39.00;1.00
262;DHT22;114;48.260;10.988;2023-09-08T13:16:17;38.40;1.00
262;DHT22;114;48.260;10.988;2023-09-08T13:18:43;37.50;1.00
262;DHT22;114;48.260;10.988;2023-09-08T13:21:11;38.30;1.00
262;DHT22;114;48.260;10.988;2023-09-08T13:23:36;38.30;1.00
262;DHT22;114;48.260;10.988;2023-09-08T13:26:02;38.40;1.00
262;DHT22;114;48.260;10.988;2023-09-08T13:28:28;38.50;1.00
262;DHT22;114;48.260;10.988;2023-09-08T13:30:53;39.00;1.00
262;DHT22;114;48.260;10.988;2023-09-08T13:33:19;38.30;1.00
262;DHT22;114;48.260;10.988;2023-09-08T13:35:45;38.20;1.00
262;DHT22;114;48.260;10.988;2023-09-08T13:38:11;39.00;1.00
262;DHT22;114;48.260;10.988;2023-09-08T13:40:37;39.80;1.00
262;DHT22;114;48.260;10.988;2023-09-08T13:43:03;40.90;1.00
262;DHT22;114;48.260;10.988;2023-09-08T13:45:29;39.70;1.00
262;DHT22;114;48.260;10.988;2023-09-08T13:47:54;40.20;1.00
262;DHT22;114;48.260;10.988;2023-09-08T13:50:20;40.40;1.00
262;DHT22;114;48.260;10.988;2023-09-08T13:52:46;39.50;1.00
262;DHT22;114;48.260;10.988;2023-09-08T13:55:12;39.60;1.00
262;DHT22;114;48.260;10.988;2023-09-08T13:57:37;40.00;1.00
262;DHT22;114;48.260;10.988;2023-09-08T14:00:03;39.40;1.00
262;DHT22;114;48.260;10.988;2023-09-08T14:02:29;38.10;1.00
262;DHT22;114;48.260;10.988;2023-09-08T14:04:57;39.30;1.00
262;DHT22;114;48.260;10.988;2023-09-08T14:07:23;39.30;1.00
262;DHT22;114;48.260;10.988;2023-09-08T14:09:48;39.10;1.00
262;DHT22;114;48.260;10.988;2023-09-08T14:12:15;39.20;1.00
262;DHT22;114;48.260;10.988;2023-09-08T14:14:41;38.50;1.00
262;DHT22;114;48.260;10.988;2023-09-08T14:17:06;38.60;1.00
262;DHT22;114;48.260;10.988;2023-09-08T14:19:32;38.90;1.00
262;DHT22;114;48.260;10.988;2023-09-08T14:21:57;38.60;1.00
262;DHT22;114;48.260;10.988;2023-09-08T14:24:23;38.90;1.00
262;DHT22;114;48.260;10.988;2023-09-08T14:26:49;39.50;1.00
262;DHT22;114;48.260;10.988;2023-09-08T14:29:16;39.50;1.00
262;DHT22;114;48.260;10.988;2023-09-08T14:31:42;39.10;1.00
262;DHT22;114;48.260;10.988;2023-09-08T14:34:09;38.90;1.00
262;DHT22;114;48.260;10.988;2023-09-08T14:36:34;39.30;1.00
262;DHT22;114;48.260;10.988;2023-09-08T14:39:00;40.00;1.00
262;DHT22;114;48.260;10.988;2023-09-08T14:41:26;40.20;1.00
262;DHT22;114;48.260;10.988;2023-09-08T14:43:51;40.00;1.00
262;DHT22;114;48.260;10.988;2023-09-08T14:46:17;39.80;1.00
262;DHT22;114;48.260;10.988;2023-09-08T14:48:44;38.80;1.00
262;DHT22;114;48.260;10.988;2023-09-08T14:51:10;38.00;1.00
262;DHT22;114;48.260;10.988;2023-09-08T14:53:36;39.00;1.00
262;DHT22;114;48.260;10.988;2023-09-08T14:56:01;39.40;1.00
262;DHT22;114;48.260;10.988;2023-09-08T14:58:30;39.20;1.00
262;DHT22;114;48.260;10.988;2023-09-08T15:01:00;39.70;1.00
262;DHT22;114;48.260;10.988;2023-09-08T15:03:33;39.10;1.00
262;DHT22;114;48.260;10.988;2023-09-08T15:05:59;39.60;1.00
262;DHT22;114;48.260;10.988;2023-09-08T15:08:25;39.60;1.00
262;DHT22;114;48.260;10.988;2023-09-08T15:10:51;38.00;1.00
262;DHT22;114;48.260;10.988;2023-09-08T15:13:17;37.10;1.00
262;DHT22;114;48.260;10.988;2023-09-08T15:15:42;37.60;1.00
262;DHT22;114;48.260;10.988;2023-09-08T15:18:09;37.80;1.00
262;DHT22;114;48.260;10.988;2023-09-08T15:20:35;37.40;1.00
262;DHT22;114;48.260;10.988;2023-09-08T15:23:00;37.50;1.00
262;DHT22;114;48.260;10.988;2023-09-08T15:25:26;38.00;1.00
262;DHT22;114;48.260;10.988;2023-09-08T15:27:52;36.80;1.00
262;DHT22;114;48.260;10.988;2023-09-08T15:30:19;36.80;1.00
262;DHT22;114;48.260;10.988;2023-09-08T15:32:46;34.80;1.00
262;DHT22;114;48.260;10.988;2023-09-08T15:35:12;33.60;1.00
262;DHT22;114;48.260;10.988;2023-09-08T15:37:38;32.20;1.00
262;DHT22;114;48.260;10.988;2023-09-08T15:40:05;31.30;1.00
262;DHT22;114;48.260;10.988;2023-09-08T15:42:31;30.20;1.00
262;DHT22;114;48.260;10.988;2023-09-08T15:44:57;29.90;1.00
262;DHT22;114;48.260;10.988;2023-09-08T15:47:23;29.50;1.00
262;DHT22;114;48.260;10.988;2023-09-08T15:49:49;29.20;1.00
262;DHT22;114;48.260;10.988;2023-09-08T15:52:14;28.80;1.00
262;DHT22;114;48.260;10.988;2023-09-08T15:54:40;28.50;1.00
262;DHT22;114;48.260;10.988;2023-09-08T15:57:06;28.10;1.00
262;DHT22;114;48.260;10.988;2023-09-08T15:59:33;28.00;1.00
262;DHT22;114;48.260;10.988;2023-09-08T16:01:58;27.70;1.00
262;DHT22;114;48.260;10.988;2023-09-08T16:04:24;27.60;1.00
262;DHT22;114;48.260;10.988;2023-09-08T16:06:50;27.40;1.00
262;DHT22;114;48.260;10.988;2023-09-08T16:09:15;27.30;1.00
262;DHT22;114;48.260;10.988;2023-09-08T16:11:41;27.20;1.00
262;DHT22;114;48.260;10.988;2023-09-08T16:14:07;27.00;1.00
262;DHT22;114;48.260;10.988;2023-09-08T16:16:32;26.90;1.00
262;DHT22;114;48.260;10.988;2023-09-08T16:18:58;26.90;1.00
262;DHT22;114;48.260;10.988;2023-09-08T16:21:24;26.80;1.00
262;DHT22;114;48.260;10.988;2023-09-08T16:23:49;26.70;1.00
262;DHT22;114;48.260;10.988;2023-09-08T16:26:15;26.70;1.00
262;DHT22;114;48.260;10.988;2023-09-08T16:28:41;26.60;1.00
262;DHT22;114;48.260;10.988;2023-09-08T16:31:07;26.50;1.00
262;DHT22;114;48.260;10.988;2023-09-08T16:33:34;26.40;1.00
262;DHT22;114;48.260;10.988;2023-09-08T16:36:00;26.20;1.00
262;DHT22;114;48.260;10.988;2023-09-08T16:38:25;26.10;1.00
262;DHT22;114;48.260;10.988;2023-09-08T16:40:51;26.00;1.00